createdAt,value
2022-09-23T00:05:23.824Z,5.20
2022-09-23T00:10:51.578Z,5.10
2022-09-23T00:16:29.059Z,5.10
2022-09-23T00:21:56.930Z,5.00
2022-09-23T00:27:24.796Z,4.90
2022-09-23T00:32:53.159Z,4.80
2022-09-23T00:38:21.285Z,4.80
2022-09-23T00:43:59.973Z,4.70
2022-09-23T00:49:30.590Z,4.60
2022-09-23T00:55:01.138Z,4.50
2022-09-23T01:00:29.221Z,4.50
2022-09-23T01:05:58.248Z,4.40
2022-09-23T01:12:24.460Z,4.30
2022-09-23T01:17:55.471Z,4.30
2022-09-23T01:24:02.579Z,4.20
2022-09-23T01:30:08.318Z,4.10
2022-09-23T01:35:50.472Z,4.10
2022-09-23T01:42:07.052Z,4.10
2022-09-23T01:47:56.163Z,4.00
2022-09-23T01:53:55.635Z,4.00
2022-09-23T01:59:33.759Z,4.00
2022-09-23T02:05:18.536Z,3.90
2022-09-23T02:10:54.480Z,3.80
2022-09-23T02:16:32.257Z,3.80
2022-09-23T02:22:13.190Z,3.70
2022-09-23T02:28:19.318Z,3.60
2022-09-23T02:34:11.627Z,3.60
2022-09-23T02:40:02.047Z,3.50
2022-09-23T02:45:30.605Z,3.50
2022-09-23T02:51:02.296Z,3.50
2022-09-23T02:56:30.439Z,3.50
2022-09-23T03:03:05.336Z,3.40
2022-09-23T03:08:51.269Z,3.30
2022-09-23T03:14:49.522Z,3.30
2022-09-23T03:20:40.997Z,3.30
2022-09-23T03:26:23.600Z,3.20
2022-09-23T03:31:54.871Z,3.20
2022-09-23T03:38:07.213Z,3.20
2022-09-23T03:43:38.817Z,3.20
2022-09-23T03:49:39.880Z,3.10
2022-09-23T03:55:08.927Z,3.10
2022-09-23T04:00:37.306Z,3.10
2022-09-23T04:06:05.711Z,3.10
2022-09-23T04:11:33.997Z,3.00
2022-09-23T04:17:02.834Z,3.00
2022-09-23T04:22:31.303Z,2.90
2022-09-23T04:28:00.104Z,2.90
2022-09-23T04:33:28.241Z,2.90
2022-09-23T04:38:56.552Z,2.90
2022-09-23T04:44:24.519Z,2.90
2022-09-23T04:49:55.529Z,2.80
2022-09-23T04:55:29.465Z,2.80
2022-09-23T05:01:27.282Z,2.80
2022-09-23T05:06:57.488Z,2.80
2022-09-23T05:12:28.758Z,2.70
2022-09-23T05:17:59.704Z,2.80
2022-09-23T05:23:28.174Z,2.80
2022-09-23T05:28:56.240Z,2.90
2022-09-23T05:34:24.802Z,3.10
2022-09-23T05:39:52.688Z,3.30
2022-09-23T05:45:21.104Z,3.40
2022-09-23T05:50:52.779Z,3.60
2022-09-23T05:56:25.145Z,3.70
2022-09-23T06:01:56.312Z,3.90
2022-09-23T06:07:24.901Z,4.10
2022-09-23T06:12:52.993Z,4.40
2022-09-23T06:18:20.973Z,4.60
2022-09-23T06:23:50.761Z,4.80
2022-09-23T06:29:20.487Z,5.10
2022-09-23T06:34:51.989Z,5.40
2022-09-23T06:40:20.712Z,5.70
2022-09-23T06:45:56.673Z,5.90
2022-09-23T06:51:24.533Z,6.20
2022-09-23T06:56:55.801Z,6.50
2022-09-23T07:02:24.034Z,6.80
2022-09-23T07:07:53.375Z,7.10
2022-09-23T07:13:21.714Z,7.40
2022-09-23T07:18:49.521Z,7.80
2022-09-23T07:24:18.064Z,8.10
2022-09-23T07:29:50.635Z,8.50
2022-09-23T07:35:18.673Z,8.80
2022-09-23T07:40:46.840Z,9.20
2022-09-23T07:46:18.296Z,9.50
2022-09-23T07:51:46.407Z,9.90
2022-09-23T07:57:14.138Z,10.20
2022-09-23T08:02:42.614Z,10.40
2022-09-23T08:08:10.611Z,10.70
2022-09-23T08:13:38.956Z,11.00
2022-09-23T08:19:07.800Z,11.30
2022-09-23T08:24:35.601Z,11.60
2022-09-23T08:30:03.815Z,11.90
2022-09-23T08:35:31.906Z,12.20
2022-09-23T08:41:58.487Z,12.40
2022-09-23T08:47:47.330Z,12.60
2022-09-23T08:53:38.808Z,12.80
2022-09-23T08:59:31.413Z,13.10
2022-09-23T09:05:06.634Z,13.30
2022-09-23T09:10:46.379Z,13.60
2022-09-23T09:16:55.444Z,13.70
2022-09-23T09:22:55.074Z,13.90
2022-09-23T09:28:35.872Z,14.20
2022-09-23T09:34:37.712Z,14.40
2022-09-23T09:40:06.590Z,14.70
2022-09-23T09:45:58.126Z,15.00
2022-09-23T09:51:29.446Z,15.30
2022-09-23T09:56:57.574Z,15.70
2022-09-23T10:02:37.571Z,15.60
2022-09-23T10:08:35.066Z,15.80
2022-09-23T10:14:12.613Z,16.10
2022-09-23T10:19:47.335Z,16.20
2022-09-23T10:25:27.682Z,16.40
2022-09-23T10:31:26.250Z,16.60
2022-09-23T10:37:24.596Z,16.80
2022-09-23T10:43:47.110Z,17.10
2022-09-23T10:49:41.087Z,17.30
2022-09-23T10:55:49.522Z,17.60
2022-09-23T11:01:49.039Z,17.80
2022-09-23T11:07:57.025Z,18.00
2022-09-23T11:13:57.253Z,18.10
2022-09-23T11:19:32.054Z,18.40
2022-09-23T11:25:02.445Z,18.60
2022-09-23T11:30:49.781Z,18.80
2022-09-23T11:36:38.370Z,18.90
2022-09-23T11:42:14.427Z,19.10
2022-09-23T11:48:22.873Z,19.20
2022-09-23T11:54:11.187Z,19.10
2022-09-23T11:59:55.051Z,19.30
2022-09-23T12:05:35.479Z,19.20
2022-09-23T12:11:11.199Z,19.20
2022-09-23T12:17:01.061Z,19.20
2022-09-23T12:22:55.258Z,19.20
2022-09-23T12:28:29.266Z,19.20
2022-09-23T12:34:01.006Z,19.30
2022-09-23T12:39:37.321Z,19.50
2022-09-23T12:45:39.888Z,19.50
2022-09-23T12:51:20.261Z,19.90
2022-09-23T12:56:54.188Z,20.40
2022-09-23T13:02:38.363Z,20.70
2022-09-23T13:08:16.253Z,21.00
2022-09-23T13:13:46.195Z,21.30
2022-09-23T13:19:38.574Z,21.70
2022-09-23T13:25:24.891Z,22.00
2022-09-23T13:30:53.474Z,22.30
2022-09-23T13:36:21.962Z,22.10
2022-09-23T13:41:51.008Z,22.30
2022-09-23T13:47:18.896Z,23.30
2022-09-23T13:52:55.803Z,24.00
2022-09-23T13:58:26.872Z,24.70
2022-09-23T14:03:57.527Z,25.10
2022-09-23T14:09:28.474Z,25.70
2022-09-23T14:14:57.215Z,26.10
2022-09-23T14:20:25.067Z,26.80
2022-09-23T14:25:54.055Z,27.80
2022-09-23T14:31:23.197Z,28.40
2022-09-23T14:37:17.228Z,29.30
2022-09-23T14:42:51.444Z,30.00
2022-09-23T14:48:27.233Z,29.30
2022-09-23T14:53:55.096Z,29.70
2022-09-23T14:59:36.312Z,28.30
2022-09-23T15:05:22.970Z,26.50
2022-09-23T15:10:52.099Z,24.90
2022-09-23T15:16:27.736Z,23.60
2022-09-23T15:21:55.777Z,22.70
2022-09-23T15:27:35.589Z,21.80
2022-09-23T15:33:04.153Z,21.20
2022-09-23T15:38:32.156Z,20.60
2022-09-23T15:44:13.010Z,20.00
2022-09-23T15:49:41.530Z,19.50
2022-09-23T15:55:21.311Z,19.20
2022-09-23T16:00:56.630Z,19.20
2022-09-23T16:06:24.736Z,19.30
2022-09-23T16:11:53.270Z,18.80
2022-09-23T16:17:22.596Z,18.40
2022-09-23T16:23:07.179Z,17.90
2022-09-23T16:28:35.254Z,17.50
2022-09-23T16:34:03.526Z,17.20
2022-09-23T16:39:31.743Z,17.00
2022-09-23T16:44:59.826Z,16.70
2022-09-23T16:50:29.345Z,16.50
2022-09-23T16:56:00.120Z,16.30
2022-09-23T17:01:48.436Z,16.10
2022-09-23T17:07:16.782Z,15.90
2022-09-23T17:12:45.191Z,15.70
2022-09-23T17:18:16.516Z,15.60
2022-09-23T17:23:48.943Z,15.40
2022-09-23T17:29:16.784Z,15.20
2022-09-23T17:34:44.950Z,15.10
2022-09-23T17:40:13.792Z,14.90
2022-09-23T17:45:41.637Z,14.70
2022-09-23T17:51:18.884Z,14.70
2022-09-23T17:56:47.176Z,14.50
2022-09-23T18:02:16.224Z,14.40
2022-09-23T18:07:44.502Z,14.20
2022-09-23T18:13:12.686Z,14.10
2022-09-23T18:18:40.624Z,13.90
2022-09-23T18:24:31.216Z,13.80
2022-09-23T18:29:58.045Z,13.70
2022-09-23T18:35:25.928Z,13.60
2022-09-23T18:40:57.076Z,13.60
2022-09-23T18:46:29.490Z,13.40
2022-09-23T18:51:58.303Z,13.30
2022-09-23T18:57:26.162Z,13.30
2022-09-23T19:02:54.379Z,13.10
2022-09-23T19:08:24.419Z,13.00
2022-09-23T19:13:59.279Z,12.80
2022-09-23T19:19:30.285Z,12.70
2022-09-23T19:24:58.306Z,12.60
2022-09-23T19:30:26.133Z,12.40
2022-09-23T19:35:53.936Z,12.30
2022-09-23T19:41:24.057Z,12.20
2022-09-23T19:46:56.387Z,12.10
2022-09-23T19:52:25.076Z,12.00
2022-09-23T19:57:52.990Z,11.90
2022-09-23T20:03:20.757Z,11.80
2022-09-23T20:08:49.508Z,11.70
2022-09-23T20:14:19.523Z,11.50
2022-09-23T20:19:47.656Z,11.40
2022-09-23T20:25:15.631Z,11.30
2022-09-23T20:30:44.172Z,11.20
2022-09-23T20:36:15.666Z,11.10
2022-09-23T20:41:43.582Z,11.00
2022-09-23T20:47:14.153Z,11.00
2022-09-23T20:52:41.912Z,11.00
2022-09-23T20:58:09.807Z,10.90
2022-09-23T21:03:41.811Z,11.00
2022-09-23T21:09:09.579Z,11.00
2022-09-23T21:14:37.437Z,11.00
2022-09-23T21:20:06.483Z,10.90
2022-09-23T21:25:36.574Z,10.80
2022-09-23T21:31:09.149Z,10.80
2022-09-23T21:36:48.021Z,10.80
2022-09-23T21:42:18.434Z,10.70
2022-09-23T21:47:46.349Z,10.70
2022-09-23T21:53:25.486Z,10.70
2022-09-23T21:58:59.837Z,10.60
2022-09-23T22:04:27.886Z,10.60
2022-09-23T22:09:56.474Z,10.50
2022-09-23T22:15:25.924Z,10.50
2022-09-23T22:20:58.027Z,10.50
2022-09-23T22:26:25.832Z,10.50
2022-09-23T22:32:12.516Z,10.40
2022-09-23T22:37:40.908Z,10.40
2022-09-23T22:43:09.033Z,10.30
2022-09-23T22:48:37.405Z,10.30
2022-09-23T22:54:05.456Z,10.30
2022-09-23T22:59:34.120Z,10.30
2022-09-23T23:05:02.613Z,10.20
2022-09-23T23:10:31.221Z,10.20
2022-09-23T23:16:04.852Z,10.20
2022-09-23T23:21:34.382Z,10.20
2022-09-23T23:27:02.234Z,10.20
2022-09-23T23:32:31.014Z,10.20
2022-09-23T23:37:59.367Z,10.20
2022-09-23T23:43:27.357Z,10.20
2022-09-23T23:48:56.425Z,10.20
2022-09-23T23:54:24.541Z,10.30
2022-09-23T23:59:52.196Z,10.30
